createdAt,value
2019-01-31T00:01:46.506Z,45.70
2019-01-31T00:04:39.875Z,46.30
2019-01-31T00:07:33.239Z,46.50
2019-01-31T00:10:45.100Z,46.10
2019-01-31T00:13:54.133Z,46.60
2019-01-31T00:16:57.269Z,46.30
2019-01-31T00:19:38.414Z,46.70
2019-01-31T00:22:37.912Z,47.50
2019-01-31T00:25:25.243Z,47.00
2019-01-31T00:28:22.628Z,47.10
2019-01-31T00:31:22.657Z,47.50
2019-01-31T00:34:13.166Z,46.60
2019-01-31T00:37:14.161Z,45.80
2019-01-31T00:39:58.138Z,46.10
2019-01-31T00:43:14.471Z,45.80
2019-01-31T00:46:05.714Z,46.80
2019-01-31T00:49:07.602Z,47.00
2019-01-31T00:52:02.466Z,46.50
2019-01-31T00:54:51.603Z,46.10
2019-01-31T00:57:31.228Z,45.50
2019-01-31T01:00:10.827Z,46.20
2019-01-31T01:03:12.483Z,45.30
2019-01-31T01:06:09.052Z,45.80
2019-01-31T01:09:17.835Z,46.20
2019-01-31T01:12:40.172Z,45.90
2019-01-31T01:15:23.329Z,44.80
2019-01-31T01:18:07.388Z,44.20
2019-01-31T01:20:45.087Z,45.30
2019-01-31T01:23:24.379Z,45.00
2019-01-31T01:26:12.124Z,45.20
2019-01-31T01:29:16.231Z,44.90
2019-01-31T01:32:28.640Z,44.60
2019-01-31T01:35:32.311Z,45.30
2019-01-31T01:38:37.372Z,44.70
2019-01-31T01:41:33.587Z,45.80
2019-01-31T01:44:59.115Z,45.60
2019-01-31T01:47:49.189Z,45.80
2019-01-31T01:50:30.846Z,46.10
2019-01-31T01:53:25.804Z,46.80
2019-01-31T01:56:22.124Z,46.50
2019-01-31T01:59:04.304Z,46.60
2019-01-31T02:01:40.227Z,46.60
2019-01-31T02:04:21.137Z,46.60
2019-01-31T02:06:59.103Z,45.90
2019-01-31T02:09:49.827Z,46.70
2019-01-31T02:12:58.650Z,47.30
2019-01-31T02:15:48.886Z,47.50
2019-01-31T02:18:26.589Z,47.80
2019-01-31T02:21:37.073Z,48.10
2019-01-31T02:24:23.044Z,47.80
2019-01-31T02:27:20.439Z,48.80
2019-01-31T02:30:02.608Z,48.80
2019-01-31T02:32:59.383Z,49.20
2019-01-31T02:35:41.910Z,49.30
2019-01-31T02:38:51.784Z,50.50
2019-01-31T02:41:52.459Z,49.40
2019-01-31T02:44:53.838Z,49.00
2019-01-31T02:47:57.150Z,50.10
2019-01-31T02:51:22.366Z,49.50
2019-01-31T02:54:02.121Z,49.60
2019-01-31T02:57:04.051Z,49.00
2019-01-31T03:00:32.361Z,49.60
2019-01-31T03:03:28.251Z,49.00
2019-01-31T03:06:33.118Z,49.20
2019-01-31T03:09:28.106Z,49.50
2019-01-31T03:12:16.157Z,49.10
2019-01-31T03:14:51.056Z,49.90
2019-01-31T03:18:01.501Z,49.70
2019-01-31T03:21:17.148Z,49.60
2019-01-31T03:24:21.018Z,50.40
2019-01-31T03:27:36.321Z,51.50
2019-01-31T03:30:44.886Z,50.00
2019-01-31T03:33:45.663Z,49.90
2019-01-31T03:37:05.211Z,50.40
2019-01-31T03:39:45.813Z,50.60
2019-01-31T03:42:55.999Z,51.50
2019-01-31T03:45:32.732Z,51.20
2019-01-31T03:48:22.006Z,51.00
2019-01-31T03:51:15.036Z,51.50
2019-01-31T03:54:05.062Z,52.00
2019-01-31T03:57:16.509Z,51.90
2019-01-31T03:59:58.203Z,52.50
2019-01-31T04:03:00.618Z,53.60
2019-01-31T04:05:37.261Z,53.10
2019-01-31T04:08:06.628Z,53.00
2019-01-31T04:10:36.191Z,53.90
2019-01-31T04:13:05.569Z,54.20
2019-01-31T04:15:35.023Z,54.50
2019-01-31T04:18:04.525Z,54.70
2019-01-31T04:20:33.673Z,54.20
2019-01-31T04:23:02.980Z,55.00
2019-01-31T04:25:33.573Z,55.30
2019-01-31T04:28:02.763Z,55.00
2019-01-31T04:30:32.446Z,55.80
2019-01-31T04:33:01.632Z,55.90
2019-01-31T04:35:31.253Z,56.30
2019-01-31T04:38:00.435Z,55.70
2019-01-31T04:40:31.561Z,55.90
2019-01-31T04:43:01.303Z,55.50
2019-01-31T04:45:31.187Z,55.70
2019-01-31T04:48:01.979Z,56.10
2019-01-31T04:50:31.241Z,56.80
2019-01-31T04:53:00.409Z,56.20
2019-01-31T04:55:29.708Z,56.50
2019-01-31T04:57:58.999Z,55.90
2019-01-31T05:00:28.535Z,55.80
2019-01-31T05:02:57.882Z,55.90
2019-01-31T05:05:27.207Z,55.10
2019-01-31T05:07:56.442Z,56.60
2019-01-31T05:10:42.461Z,55.90
2019-01-31T05:13:01.275Z,55.50
2019-01-31T05:15:30.369Z,55.80
2019-01-31T05:18:02.021Z,55.50
2019-01-31T05:20:32.299Z,55.40
2019-01-31T05:23:06.560Z,56.10
2019-01-31T05:25:43.901Z,55.40
2019-01-31T05:28:27.371Z,55.30
2019-01-31T05:31:00.774Z,55.60
2019-01-31T05:33:30.416Z,55.40
2019-01-31T05:36:00.386Z,55.80
2019-01-31T05:38:30.937Z,55.70
2019-01-31T05:41:00.387Z,56.30
2019-01-31T05:43:29.992Z,56.70
2019-01-31T05:45:59.470Z,57.20
2019-01-31T05:48:29.026Z,56.80
2019-01-31T05:50:58.520Z,57.00
2019-01-31T05:53:30.408Z,57.50
2019-01-31T05:55:59.794Z,58.30
2019-01-31T05:58:33.120Z,57.10
2019-01-31T06:01:04.750Z,57.90
2019-01-31T06:03:34.422Z,58.10
2019-01-31T06:06:04.448Z,58.60
2019-01-31T06:08:33.744Z,59.10
2019-01-31T06:11:07.723Z,59.00
2019-01-31T06:13:33.865Z,58.90
2019-01-31T06:16:03.227Z,59.30
2019-01-31T06:18:38.983Z,59.00
2019-01-31T06:21:10.625Z,59.00
2019-01-31T06:23:40.146Z,59.90
2019-01-31T06:26:11.172Z,59.60
2019-01-31T06:28:41.382Z,59.70
2019-01-31T06:31:13.294Z,59.80
2019-01-31T06:33:42.718Z,60.40
2019-01-31T06:36:11.938Z,60.20
2019-01-31T06:38:56.863Z,60.80
2019-01-31T06:41:34.819Z,60.40
2019-01-31T06:44:05.273Z,61.00
2019-01-31T06:46:39.032Z,61.10
2019-01-31T06:49:06.625Z,61.20
2019-01-31T06:51:36.219Z,61.30
2019-01-31T06:54:12.028Z,59.70
2019-01-31T06:56:49.056Z,60.90
2019-01-31T06:59:20.297Z,61.20
2019-01-31T07:01:53.302Z,62.10
2019-01-31T07:04:28.934Z,62.50
2019-01-31T07:07:02.042Z,62.50
2019-01-31T07:09:35.538Z,63.10
2019-01-31T07:12:09.662Z,62.80
2019-01-31T07:14:45.243Z,62.00
2019-01-31T07:17:19.033Z,62.30
2019-01-31T07:19:49.664Z,62.20
2019-01-31T07:22:21.777Z,63.20
2019-01-31T07:24:55.500Z,63.40
2019-01-31T07:27:30.540Z,64.00
2019-01-31T07:30:03.286Z,63.40
2019-01-31T07:32:34.709Z,62.40
2019-01-31T07:35:05.533Z,61.90
2019-01-31T07:37:39.188Z,61.00
2019-01-31T07:40:11.009Z,61.30
2019-01-31T07:42:43.855Z,59.00
2019-01-31T07:45:24.709Z,58.10
2019-01-31T07:47:59.039Z,57.60
2019-01-31T07:50:30.050Z,57.60
2019-01-31T07:53:02.818Z,57.60
2019-01-31T07:55:35.330Z,55.50
2019-01-31T07:58:10.403Z,55.30
2019-01-31T08:00:41.193Z,54.90
2019-01-31T08:03:13.788Z,55.10
2019-01-31T08:05:45.227Z,54.20
2019-01-31T08:08:14.317Z,52.50
2019-01-31T08:10:45.795Z,53.90
2019-01-31T08:13:17.186Z,53.70
2019-01-31T08:15:46.001Z,53.00
2019-01-31T08:18:14.755Z,51.70
2019-01-31T08:20:43.539Z,49.70
2019-01-31T08:23:12.603Z,47.10
2019-01-31T08:25:41.400Z,46.90
2019-01-31T08:28:10.340Z,47.00
2019-01-31T08:30:41.204Z,44.90
2019-01-31T08:33:10.093Z,44.60
2019-01-31T08:35:39.333Z,40.50
2019-01-31T08:38:08.079Z,39.60
2019-01-31T08:40:36.868Z,39.10
2019-01-31T08:43:05.755Z,36.00
2019-01-31T08:45:34.678Z,36.90
2019-01-31T08:48:03.567Z,36.00
2019-01-31T08:50:32.802Z,34.00
2019-01-31T08:53:01.660Z,33.60
2019-01-31T08:55:30.412Z,34.90
2019-01-31T08:57:59.492Z,29.10
2019-01-31T09:00:29.795Z,23.10
2019-01-31T09:02:58.757Z,18.20
2019-01-31T09:05:27.603Z,14.70
2019-01-31T09:07:56.620Z,14.20
2019-01-31T09:10:27.843Z,13.80
2019-01-31T09:12:57.421Z,13.00
2019-01-31T09:15:26.776Z,10.10
2019-01-31T09:17:55.682Z,10.20
2019-01-31T09:20:37.222Z,9.60
2019-01-31T09:23:40.131Z,7.60
2019-01-31T09:26:41.184Z,8.80
2019-01-31T09:29:41.039Z,11.00
2019-01-31T09:33:03.490Z,11.50
2019-01-31T09:35:57.633Z,10.50
2019-01-31T09:39:17.111Z,7.30
2019-01-31T09:42:26.377Z,5.30
2019-01-31T09:45:05.471Z,3.50
2019-01-31T09:47:56.030Z,2.10
2019-01-31T09:50:43.413Z,1.00
2019-01-31T09:53:34.667Z,1.00
2019-01-31T09:56:18.370Z,1.00
2019-01-31T09:58:55.156Z,1.00
2019-01-31T10:02:00.636Z,1.00
2019-01-31T10:05:14.032Z,1.00
2019-01-31T10:08:20.502Z,1.00
2019-01-31T10:11:26.501Z,1.00
2019-01-31T10:14:21.276Z,1.00
2019-01-31T10:17:28.626Z,1.00
2019-01-31T10:20:30.741Z,1.00
2019-01-31T10:23:27.405Z,1.00
2019-01-31T10:26:11.607Z,1.00
2019-01-31T10:29:02.105Z,1.00
2019-01-31T10:31:47.144Z,1.00
2019-01-31T10:34:58.896Z,1.00
2019-01-31T10:38:20.880Z,1.00
2019-01-31T10:41:22.829Z,1.00
2019-01-31T10:44:16.976Z,1.00
2019-01-31T10:47:28.283Z,1.00
2019-01-31T10:50:18.556Z,1.00
2019-01-31T10:53:31.624Z,1.00
2019-01-31T10:56:15.685Z,1.00
2019-01-31T10:59:44.065Z,1.00
2019-01-31T11:02:51.540Z,1.00
2019-01-31T11:05:51.014Z,1.00
2019-01-31T11:08:35.964Z,1.00
2019-01-31T11:11:53.343Z,1.00
2019-01-31T11:14:43.083Z,1.00
2019-01-31T11:17:34.906Z,1.00
2019-01-31T11:20:18.555Z,1.00
2019-01-31T11:23:28.976Z,1.00
2019-01-31T11:26:19.720Z,1.00
2019-01-31T11:29:25.463Z,1.00
2019-01-31T11:32:20.854Z,1.00
2019-01-31T11:35:34.036Z,1.00
2019-01-31T11:38:15.741Z,1.00
2019-01-31T11:41:18.853Z,1.00
2019-01-31T11:44:22.819Z,1.00
2019-01-31T11:47:16.398Z,1.00
2019-01-31T11:50:22.264Z,1.00
2019-01-31T11:53:35.832Z,1.20
2019-01-31T11:56:30.066Z,1.80
2019-01-31T11:59:06.088Z,1.00
2019-01-31T12:01:35.685Z,1.00
2019-01-31T12:04:20.158Z,1.00
2019-01-31T12:06:49.015Z,1.00
2019-01-31T12:09:19.780Z,1.00
2019-01-31T12:11:48.753Z,1.00
2019-01-31T12:14:17.574Z,1.00
2019-01-31T12:16:47.056Z,1.00
2019-01-31T12:19:15.894Z,1.00
2019-01-31T12:21:44.903Z,1.00
2019-01-31T12:24:16.666Z,1.00
2019-01-31T12:26:44.875Z,1.00
2019-01-31T12:29:13.905Z,1.00
2019-01-31T12:31:42.993Z,1.00
2019-01-31T12:34:11.829Z,2.10
2019-01-31T12:36:40.694Z,3.70
2019-01-31T12:39:11.353Z,3.60
2019-01-31T12:41:40.320Z,4.20
2019-01-31T12:44:09.461Z,4.40
2019-01-31T12:46:38.510Z,5.00
2019-01-31T12:49:07.333Z,5.70
2019-01-31T12:51:36.298Z,5.50
2019-01-31T12:54:05.690Z,5.50
2019-01-31T12:56:34.559Z,5.70
2019-01-31T12:59:03.641Z,5.20
2019-01-31T13:01:32.747Z,4.80
2019-01-31T13:04:01.574Z,4.00
2019-01-31T13:06:30.664Z,4.20
2019-01-31T13:08:59.531Z,5.10
2019-01-31T13:11:28.391Z,4.50
2019-01-31T13:13:57.179Z,1.60
2019-01-31T13:16:25.979Z,1.40
2019-01-31T13:18:54.824Z,1.50
2019-01-31T13:21:23.629Z,1.00
2019-01-31T13:23:52.542Z,1.00
2019-01-31T13:26:21.401Z,1.00
2019-01-31T13:28:50.158Z,1.00
2019-01-31T13:31:19.017Z,1.00
2019-01-31T13:33:47.813Z,1.00
2019-01-31T13:36:16.747Z,1.00
2019-01-31T13:38:45.591Z,1.00
2019-01-31T13:41:14.600Z,1.00
2019-01-31T13:43:43.704Z,1.00
2019-01-31T13:46:12.563Z,1.00
2019-01-31T13:48:41.464Z,1.00
2019-01-31T13:51:10.882Z,1.00
2019-01-31T13:53:39.929Z,1.00
2019-01-31T13:56:09.436Z,1.00
2019-01-31T13:58:38.427Z,1.00
2019-01-31T14:01:08.209Z,1.00
2019-01-31T14:03:37.014Z,1.00
2019-01-31T14:06:05.851Z,1.60
2019-01-31T14:08:34.680Z,3.40
2019-01-31T14:11:03.467Z,4.80
2019-01-31T14:13:32.251Z,6.50
2019-01-31T14:16:01.139Z,7.40
2019-01-31T14:18:34.454Z,7.30
2019-01-31T14:21:08.125Z,7.80
2019-01-31T14:23:41.521Z,8.20
2019-01-31T14:26:12.682Z,9.40
2019-01-31T14:28:47.295Z,10.10
2019-01-31T14:31:17.024Z,11.50
2019-01-31T14:33:48.875Z,11.70
2019-01-31T14:36:20.084Z,11.00
2019-01-31T14:38:52.923Z,11.30
2019-01-31T14:41:23.294Z,11.30
2019-01-31T14:43:54.895Z,11.70
2019-01-31T14:46:29.853Z,11.40
2019-01-31T14:49:02.485Z,12.00
2019-01-31T14:51:34.245Z,12.50
2019-01-31T14:54:05.333Z,12.80
2019-01-31T14:56:40.242Z,13.40
2019-01-31T14:59:13.898Z,13.90
2019-01-31T15:01:45.037Z,14.40
2019-01-31T15:04:15.634Z,14.90
2019-01-31T15:06:46.345Z,15.60
2019-01-31T15:09:16.939Z,16.10
2019-01-31T15:11:49.835Z,17.10
2019-01-31T15:14:31.244Z,16.90
2019-01-31T15:16:57.267Z,17.50
2019-01-31T15:19:28.766Z,18.20
2019-01-31T15:21:58.095Z,18.90
2019-01-31T15:24:28.494Z,20.00
2019-01-31T15:26:57.953Z,21.40
2019-01-31T15:29:58.809Z,22.20
2019-01-31T15:32:40.413Z,22.80
2019-01-31T15:35:12.246Z,23.60
2019-01-31T15:38:05.968Z,24.50
2019-01-31T15:40:45.059Z,25.40
2019-01-31T15:43:35.638Z,26.00
2019-01-31T15:46:12.194Z,26.70
2019-01-31T15:48:53.953Z,26.20
2019-01-31T15:51:30.747Z,26.40
2019-01-31T15:54:34.662Z,26.30
2019-01-31T15:57:32.417Z,27.00
2019-01-31T16:00:17.533Z,27.70
2019-01-31T16:03:08.129Z,28.30
2019-01-31T16:05:44.084Z,28.30
2019-01-31T16:08:17.518Z,28.20
2019-01-31T16:11:02.720Z,28.30
2019-01-31T16:13:27.674Z,28.50
2019-01-31T16:16:06.343Z,29.20
2019-01-31T16:18:47.020Z,29.70
2019-01-31T16:21:23.104Z,29.10
2019-01-31T16:23:56.989Z,29.70
2019-01-31T16:26:36.102Z,29.70
2019-01-31T16:32:35.535Z,29.80
2019-01-31T16:35:11.847Z,28.80
2019-01-31T16:37:58.945Z,30.70
2019-01-31T16:41:00.618Z,31.80
2019-01-31T16:43:42.726Z,33.20
2019-01-31T16:46:11.906Z,35.70
2019-01-31T16:48:41.428Z,37.00
2019-01-31T16:51:13.428Z,38.70
2019-01-31T16:53:43.501Z,40.10
2019-01-31T16:56:13.974Z,39.80
2019-01-31T16:58:45.141Z,39.50
2019-01-31T17:01:17.261Z,40.30
2019-01-31T17:03:48.340Z,40.20
2019-01-31T17:06:18.925Z,39.90
2019-01-31T17:08:48.046Z,42.00
2019-01-31T17:11:22.642Z,42.90
2019-01-31T17:13:52.375Z,42.50
2019-01-31T17:16:24.635Z,42.30
2019-01-31T17:18:57.030Z,42.00
2019-01-31T17:21:35.382Z,43.30
2019-01-31T17:24:05.429Z,42.90
2019-01-31T17:27:16.843Z,44.10
2019-01-31T17:29:23.908Z,44.90
2019-01-31T17:31:55.293Z,44.70
2019-01-31T17:34:24.787Z,44.80
2019-01-31T17:36:57.441Z,44.80
2019-01-31T17:39:26.686Z,43.50
2019-01-31T17:42:06.640Z,45.60
2019-01-31T17:44:57.249Z,44.50
2019-01-31T17:47:31.054Z,44.10
2019-01-31T17:50:01.787Z,42.70
2019-01-31T17:52:31.005Z,43.70
2019-01-31T17:55:11.088Z,44.00
2019-01-31T17:57:41.905Z,44.70
2019-01-31T18:00:55.319Z,45.20
2019-01-31T18:03:25.851Z,45.60
2019-01-31T18:06:41.081Z,46.30
2019-01-31T18:09:10.566Z,45.90
2019-01-31T18:11:40.109Z,45.60
2019-01-31T18:14:16.737Z,45.80
2019-01-31T18:16:50.863Z,46.30
2019-01-31T18:19:19.940Z,46.50
2019-01-31T18:21:52.177Z,46.80
2019-01-31T18:24:23.078Z,47.60
2019-01-31T18:26:52.445Z,47.70
2019-01-31T18:29:21.663Z,48.60
2019-01-31T18:31:51.097Z,47.60
2019-01-31T18:34:20.140Z,48.80
2019-01-31T18:36:49.414Z,49.30
2019-01-31T18:39:18.657Z,49.70
2019-01-31T18:41:48.085Z,50.20
2019-01-31T18:44:17.045Z,50.80
2019-01-31T18:46:46.655Z,51.30
2019-01-31T18:49:18.223Z,52.20
2019-01-31T18:51:49.434Z,51.90
2019-01-31T18:54:21.225Z,52.30
2019-01-31T18:56:50.477Z,53.30
2019-01-31T18:59:19.670Z,53.90
2019-01-31T19:01:48.652Z,54.20
2019-01-31T19:04:18.047Z,54.30
2019-01-31T19:06:47.226Z,56.70
2019-01-31T19:09:16.838Z,56.50
2019-01-31T19:11:45.923Z,55.40
2019-01-31T19:14:18.663Z,56.10
2019-01-31T19:16:49.040Z,56.10
2019-01-31T19:19:18.587Z,56.80
2019-01-31T19:21:49.133Z,56.10
2019-01-31T19:24:18.237Z,56.40
2019-01-31T19:26:47.838Z,57.40
2019-01-31T19:29:17.479Z,57.70
2019-01-31T19:31:49.272Z,57.60
2019-01-31T19:34:18.620Z,57.70
2019-01-31T19:36:47.865Z,57.00
2019-01-31T19:39:18.405Z,57.60
2019-01-31T19:41:47.968Z,58.20
2019-01-31T19:44:17.559Z,58.70
2019-01-31T19:46:47.124Z,59.30
2019-01-31T19:49:16.457Z,60.50
2019-01-31T19:51:49.749Z,60.40
2019-01-31T19:54:20.301Z,60.90
2019-01-31T19:56:51.972Z,60.60
2019-01-31T19:59:21.409Z,60.60
2019-01-31T20:01:51.167Z,60.60
2019-01-31T20:04:20.939Z,61.00
2019-01-31T20:06:50.316Z,61.20
2019-01-31T20:09:22.853Z,61.20
2019-01-31T20:11:52.106Z,61.20
2019-01-31T20:14:22.471Z,61.20
2019-01-31T20:16:51.805Z,61.60
2019-01-31T20:19:21.193Z,61.50
2019-01-31T20:21:52.044Z,60.80
2019-01-31T20:24:21.654Z,60.70
2019-01-31T20:26:51.515Z,60.80
2019-01-31T20:29:20.609Z,61.20
2019-01-31T20:31:50.101Z,62.20
2019-01-31T20:34:19.123Z,62.30
2019-01-31T20:36:48.570Z,62.30
2019-01-31T20:39:18.054Z,61.40
2019-01-31T20:41:54.219Z,61.90
2019-01-31T20:44:18.871Z,62.20
2019-01-31T20:46:48.082Z,62.70
2019-01-31T20:49:18.071Z,62.90
2019-01-31T20:51:47.565Z,63.10
2019-01-31T20:54:16.733Z,62.50
2019-01-31T20:56:46.231Z,62.40
2019-01-31T20:59:15.296Z,62.10
2019-01-31T21:01:44.608Z,62.50
2019-01-31T21:04:13.785Z,62.30
2019-01-31T21:06:42.944Z,62.20
2019-01-31T21:09:12.580Z,62.20
2019-01-31T21:11:41.885Z,62.90
2019-01-31T21:14:11.157Z,62.80
2019-01-31T21:16:51.057Z,62.70
2019-01-31T21:19:11.316Z,63.50
2019-01-31T21:21:40.554Z,63.00
2019-01-31T21:24:09.596Z,62.90
2019-01-31T21:26:38.874Z,63.30
2019-01-31T21:29:08.199Z,63.00
2019-01-31T21:31:37.167Z,62.20
2019-01-31T21:34:06.739Z,62.60
2019-01-31T21:36:35.871Z,64.20
2019-01-31T21:39:12.340Z,62.80
2019-01-31T21:41:41.554Z,63.40
2019-01-31T21:44:10.986Z,63.60
2019-01-31T21:46:40.579Z,63.50
2019-01-31T21:49:09.531Z,63.60
2019-01-31T21:51:39.213Z,63.60
2019-01-31T21:54:08.248Z,64.00
2019-01-31T21:56:37.355Z,64.50
2019-01-31T21:59:08.848Z,64.60
2019-01-31T22:01:36.971Z,64.00
2019-01-31T22:04:05.967Z,64.00
2019-01-31T22:06:34.957Z,63.60
2019-01-31T22:09:07.271Z,64.10
2019-01-31T22:11:36.489Z,63.80
2019-01-31T22:14:06.272Z,63.70
2019-01-31T22:16:35.251Z,63.80
2019-01-31T22:19:04.639Z,64.10
2019-01-31T22:21:33.955Z,63.60
2019-01-31T22:24:02.941Z,63.60
2019-01-31T22:26:34.951Z,64.50
2019-01-31T22:29:04.273Z,64.00
2019-01-31T22:31:33.349Z,63.90
2019-01-31T22:34:02.306Z,63.20
2019-01-31T22:36:32.043Z,63.60
2019-01-31T22:39:03.484Z,63.20
2019-01-31T22:41:32.544Z,63.00
2019-01-31T22:44:01.689Z,62.50
2019-01-31T22:46:32.165Z,61.30
2019-01-31T22:49:01.183Z,61.70
2019-01-31T22:51:30.201Z,61.50
2019-01-31T22:53:58.994Z,61.50
2019-01-31T22:56:27.857Z,61.70
2019-01-31T22:58:56.771Z,60.80
2019-01-31T23:01:49.922Z,60.60
2019-01-31T23:04:18.738Z,60.60
2019-01-31T23:06:47.558Z,60.70
2019-01-31T23:09:16.661Z,60.50
2019-01-31T23:11:45.511Z,60.00
2019-01-31T23:14:14.468Z,60.10
2019-01-31T23:16:43.284Z,59.60
2019-01-31T23:19:12.226Z,59.70
2019-01-31T23:21:41.315Z,59.60
2019-01-31T23:24:10.394Z,60.10
2019-01-31T23:26:39.171Z,60.20
2019-01-31T23:29:08.046Z,60.60
2019-01-31T23:31:36.967Z,60.90
2019-01-31T23:34:06.177Z,60.50
2019-01-31T23:36:35.012Z,59.70
2019-01-31T23:39:05.688Z,60.00
2019-01-31T23:41:34.450Z,59.30
2019-01-31T23:44:03.202Z,59.40
2019-01-31T23:46:31.962Z,59.10
2019-01-31T23:49:00.723Z,58.90
2019-01-31T23:51:29.991Z,58.20
2019-01-31T23:53:58.734Z,58.50
2019-01-31T23:56:27.571Z,58.40
2019-01-31T23:58:56.600Z,59.00
